createdAt,value
2023-05-12T00:00:13.484Z,11.80
2023-05-12T00:02:43.596Z,11.65
2023-05-12T00:05:12.172Z,11.07
2023-05-12T00:07:41.873Z,11.13
2023-05-12T00:10:11.203Z,11.93
2023-05-12T00:12:39.561Z,12.00
2023-05-12T00:15:09.526Z,10.77
2023-05-12T00:17:37.797Z,11.70
2023-05-12T00:20:07.806Z,11.02
2023-05-12T00:22:36.299Z,10.65
2023-05-12T00:25:07.124Z,10.57
2023-05-12T00:27:35.489Z,10.88
2023-05-12T00:30:03.892Z,10.43
2023-05-12T00:32:32.278Z,10.40
2023-05-12T00:35:00.887Z,10.13
2023-05-12T00:37:29.368Z,10.02
2023-05-12T00:39:57.696Z,10.05
2023-05-12T00:42:27.526Z,10.10
2023-05-12T00:44:55.834Z,9.88
2023-05-12T00:47:24.212Z,9.82
2023-05-12T00:49:53.004Z,9.35
2023-05-12T00:52:22.195Z,9.68
2023-05-12T00:54:51.537Z,9.65
2023-05-12T00:57:22.076Z,9.65
2023-05-12T00:59:51.775Z,9.20
2023-05-12T01:02:20.403Z,8.90
2023-05-12T01:04:49.008Z,9.63
2023-05-12T01:07:20.713Z,9.35
2023-05-12T01:09:49.662Z,8.77
2023-05-12T01:12:17.995Z,8.35
2023-05-12T01:14:46.370Z,8.20
2023-05-12T01:17:21.582Z,9.00
2023-05-12T01:19:54.636Z,8.65
2023-05-12T01:22:23.449Z,8.55
2023-05-12T01:25:03.003Z,7.57
2023-05-12T01:27:35.478Z,8.15
2023-05-12T01:30:07.792Z,7.57
2023-05-12T01:32:37.633Z,7.72
2023-05-12T01:35:08.172Z,7.95
2023-05-12T01:37:38.225Z,7.57
2023-05-12T01:40:09.012Z,7.80
2023-05-12T01:42:40.806Z,7.45
2023-05-12T01:45:11.746Z,7.75
2023-05-12T01:47:40.182Z,8.63
2023-05-12T01:50:11.448Z,8.10
2023-05-12T01:52:40.517Z,8.50
2023-05-12T01:55:12.927Z,9.82
2023-05-12T01:57:53.724Z,10.20
2023-05-12T02:00:22.692Z,9.70
2023-05-12T02:02:54.234Z,10.98
2023-05-12T02:05:22.740Z,11.07
2023-05-12T02:07:51.825Z,10.85
2023-05-12T02:10:20.930Z,11.07
2023-05-12T02:12:49.656Z,11.10
2023-05-12T02:15:19.458Z,10.80
2023-05-12T02:20:20.209Z,10.80
2023-05-12T02:22:48.779Z,10.38
2023-05-12T02:25:17.346Z,10.68
2023-05-12T02:27:46.332Z,11.10
2023-05-12T02:30:15.196Z,11.57
2023-05-12T02:32:44.997Z,11.43
2023-05-12T02:35:14.090Z,12.25
2023-05-12T02:37:43.262Z,11.80
2023-05-12T02:40:12.718Z,12.60
2023-05-12T02:42:43.525Z,13.05
2023-05-12T02:45:13.229Z,12.38
2023-05-12T02:47:46.164Z,11.75
2023-05-12T02:50:14.896Z,12.18
2023-05-12T02:52:43.145Z,12.75
2023-05-12T02:55:11.529Z,12.70
2023-05-12T02:57:39.947Z,13.77
2023-05-12T03:00:09.839Z,12.52
2023-05-12T03:02:41.355Z,12.50
2023-05-12T03:05:11.602Z,12.38
2023-05-12T03:07:40.584Z,13.10
2023-05-12T03:10:11.155Z,13.40
2023-05-12T03:15:29.690Z,12.23
2023-05-12T03:17:58.166Z,11.25
2023-05-12T03:20:28.737Z,10.10
2023-05-12T03:22:57.103Z,9.57
2023-05-12T03:25:25.462Z,8.75
2023-05-12T03:27:54.229Z,8.73
2023-05-12T03:30:22.655Z,9.68
2023-05-12T03:32:50.917Z,9.20
2023-05-12T03:35:19.610Z,9.88
2023-05-12T03:37:49.840Z,9.68
2023-05-12T03:42:48.405Z,8.48
2023-05-12T03:45:19.651Z,8.63
2023-05-12T03:47:48.074Z,7.53
2023-05-12T03:50:16.722Z,6.93
2023-05-12T03:52:45.715Z,6.68
2023-05-12T03:55:15.682Z,6.03
2023-05-12T03:57:44.484Z,6.25
2023-05-12T04:00:14.457Z,6.25
2023-05-12T04:02:46.343Z,5.55
2023-05-12T04:05:16.135Z,5.75
2023-05-12T04:07:44.399Z,5.55
2023-05-12T04:10:12.806Z,5.10
2023-05-12T04:12:42.510Z,5.00
2023-05-12T04:15:14.485Z,5.30
2023-05-12T04:17:42.997Z,5.15
2023-05-12T04:20:12.016Z,5.30
2023-05-12T04:22:40.504Z,5.00
2023-05-12T04:25:10.332Z,5.50
2023-05-12T04:27:40.004Z,4.78
2023-05-12T04:30:11.063Z,5.45
2023-05-12T04:32:41.340Z,4.85
2023-05-12T04:35:10.606Z,5.40
2023-05-12T04:37:39.031Z,5.22
2023-05-12T04:40:09.514Z,5.35
2023-05-12T04:42:37.916Z,5.90
2023-05-12T04:45:10.973Z,6.65
2023-05-12T04:47:39.473Z,6.80
2023-05-12T04:50:10.641Z,6.80
2023-05-12T04:52:39.110Z,7.53
2023-05-12T04:55:08.803Z,8.73
2023-05-12T04:57:37.913Z,7.60
2023-05-12T05:00:08.114Z,8.10
2023-05-12T05:05:07.821Z,9.18
2023-05-12T05:07:36.384Z,9.32
2023-05-12T05:10:05.972Z,9.20
2023-05-12T05:12:34.854Z,8.98
2023-05-12T05:15:03.090Z,10.27
2023-05-12T05:17:31.498Z,9.77
2023-05-12T05:20:03.228Z,10.65
2023-05-12T05:22:34.755Z,11.45
2023-05-12T05:25:03.283Z,12.32
2023-05-12T05:27:31.860Z,12.82
2023-05-12T05:30:00.087Z,12.52
2023-05-12T05:32:28.456Z,14.25
2023-05-12T05:34:56.757Z,13.10
2023-05-12T05:37:27.369Z,14.55
2023-05-12T05:39:57.688Z,15.05
2023-05-12T05:42:26.012Z,15.20
2023-05-12T05:44:54.815Z,15.63
2023-05-12T05:47:24.328Z,16.13
2023-05-12T05:49:52.826Z,16.40
2023-05-12T05:52:21.224Z,16.75
2023-05-12T05:54:51.115Z,16.75
2023-05-12T05:57:21.285Z,17.35
2023-05-12T05:59:50.463Z,18.08
2023-05-12T06:02:18.940Z,18.30
2023-05-12T06:04:47.359Z,17.98
2023-05-12T06:07:16.984Z,18.75
2023-05-12T06:09:45.395Z,19.05
2023-05-12T06:12:15.052Z,18.58
2023-05-12T06:14:43.383Z,19.42
2023-05-12T06:17:11.762Z,19.08
2023-05-12T06:19:40.040Z,20.50
2023-05-12T06:22:08.477Z,22.15
2023-05-12T06:24:36.717Z,21.67
2023-05-12T06:27:05.118Z,22.65
2023-05-12T06:29:34.797Z,23.52
2023-05-12T06:32:03.320Z,25.90
2023-05-12T06:34:31.601Z,27.20
2023-05-12T06:36:59.929Z,27.25
2023-05-12T06:39:28.176Z,27.80
2023-05-12T06:41:56.467Z,30.70
2023-05-12T06:44:24.782Z,30.70
2023-05-12T06:46:57.403Z,33.03
2023-05-12T06:49:25.728Z,34.42
2023-05-12T06:51:54.032Z,35.25
2023-05-12T06:54:22.305Z,35.20
2023-05-12T06:56:50.615Z,36.30
2023-05-12T06:59:21.267Z,35.35
2023-05-12T07:01:49.705Z,36.28
2023-05-12T07:04:21.658Z,34.90
2023-05-12T07:06:50.020Z,34.63
2023-05-12T07:09:18.821Z,35.08
2023-05-12T07:11:47.756Z,34.70
2023-05-12T07:14:16.247Z,34.17
2023-05-12T07:16:44.735Z,33.35
2023-05-12T07:19:13.502Z,33.67
2023-05-12T07:21:43.195Z,31.48
2023-05-12T07:24:11.547Z,30.80
2023-05-12T07:26:39.832Z,32.78
2023-05-12T07:29:12.888Z,32.47
2023-05-12T07:31:42.302Z,29.38
2023-05-12T07:34:10.841Z,28.27
2023-05-12T07:36:39.144Z,26.92
2023-05-12T07:39:08.832Z,26.65
2023-05-12T07:41:39.067Z,22.77
2023-05-12T07:44:07.676Z,23.05
2023-05-12T07:46:36.336Z,22.73
2023-05-12T07:49:04.651Z,23.23
2023-05-12T07:51:32.949Z,22.35
2023-05-12T07:54:01.577Z,23.48
2023-05-12T07:56:31.205Z,23.67
2023-05-12T07:58:59.526Z,22.65
2023-05-12T08:01:27.828Z,23.23
2023-05-12T08:03:56.192Z,22.20
2023-05-12T08:06:24.968Z,22.58
2023-05-12T08:08:53.545Z,22.63
2023-05-12T08:11:21.920Z,22.83
2023-05-12T08:13:51.588Z,22.42
2023-05-12T08:16:19.943Z,22.97
2023-05-12T08:18:48.324Z,22.52
2023-05-12T08:21:16.681Z,21.50
2023-05-12T08:23:45.461Z,21.63
2023-05-12T08:26:13.705Z,22.95
2023-05-12T08:28:42.027Z,22.33
2023-05-12T08:31:11.759Z,23.38
2023-05-12T08:33:40.146Z,22.23
2023-05-12T08:36:08.918Z,23.35
2023-05-12T08:38:37.199Z,22.77
2023-05-12T08:41:15.040Z,23.48
2023-05-12T08:43:45.670Z,24.10
2023-05-12T08:48:44.408Z,22.92
2023-05-12T08:51:14.566Z,23.92
2023-05-12T08:53:43.799Z,23.33
2023-05-12T08:58:50.636Z,23.90
2023-05-12T09:01:21.132Z,24.77
2023-05-12T09:03:49.750Z,22.95
2023-05-12T09:06:18.811Z,22.65
2023-05-12T09:08:47.310Z,22.73
2023-05-12T09:11:17.618Z,23.70
2023-05-12T09:13:53.970Z,22.58
2023-05-12T09:16:26.478Z,21.70
2023-05-12T09:18:58.326Z,22.17
2023-05-12T09:21:27.712Z,22.17
2023-05-12T09:23:57.995Z,22.13
2023-05-12T09:26:28.374Z,21.88
2023-05-12T09:29:08.150Z,22.38
2023-05-12T09:31:38.527Z,23.38
2023-05-12T09:34:10.081Z,20.77
2023-05-12T09:36:38.424Z,20.10
2023-05-12T09:39:09.026Z,20.65
2023-05-12T09:44:06.840Z,20.65
2023-05-12T09:46:35.338Z,20.17
2023-05-12T09:49:05.102Z,22.42
2023-05-12T09:51:33.597Z,22.07
2023-05-12T09:54:02.295Z,20.38
2023-05-12T09:56:33.760Z,21.10
2023-05-12T09:59:06.140Z,21.52
2023-05-12T10:01:34.761Z,21.50
2023-05-12T10:04:09.037Z,19.77
2023-05-12T10:06:42.960Z,20.70
2023-05-12T10:09:18.465Z,19.65
2023-05-12T10:11:50.633Z,20.20
2023-05-12T10:14:20.605Z,20.40
2023-05-12T10:16:51.053Z,20.77
2023-05-12T10:19:21.325Z,20.20
2023-05-12T10:21:50.759Z,19.85
2023-05-12T10:24:19.300Z,19.90
2023-05-12T10:26:47.648Z,19.30
2023-05-12T10:29:16.764Z,18.98
2023-05-12T10:31:48.071Z,18.50
2023-05-12T10:34:20.892Z,17.75
2023-05-12T10:36:51.249Z,17.15
2023-05-12T10:39:19.909Z,16.63
2023-05-12T10:41:48.184Z,17.13
2023-05-12T10:44:16.454Z,15.68
2023-05-12T10:46:45.293Z,14.75
2023-05-12T10:49:15.609Z,15.40
2023-05-12T10:52:01.894Z,16.52
2023-05-12T10:54:30.230Z,17.15
2023-05-12T10:57:02.171Z,17.90
2023-05-12T10:59:32.178Z,16.67
2023-05-12T11:02:05.198Z,17.27
2023-05-12T11:04:41.732Z,17.27
2023-05-12T11:07:14.244Z,18.13
2023-05-12T11:12:17.792Z,18.48
2023-05-12T11:14:47.619Z,17.63
2023-05-12T11:17:16.871Z,18.70
2023-05-12T11:19:48.981Z,18.25
2023-05-12T11:22:21.517Z,18.08
2023-05-12T11:24:52.535Z,19.25
2023-05-12T11:27:23.897Z,18.08
2023-05-12T11:30:00.374Z,19.30
2023-05-12T11:32:29.648Z,18.48
2023-05-12T11:35:09.820Z,17.85
2023-05-12T11:37:43.446Z,17.77
2023-05-12T11:40:17.031Z,15.95
2023-05-12T11:42:48.470Z,15.98
2023-05-12T11:45:25.838Z,15.90
2023-05-12T11:47:56.119Z,16.90
2023-05-12T11:50:26.834Z,16.73
2023-05-12T11:52:58.208Z,17.08
2023-05-12T11:55:26.700Z,17.40
2023-05-12T11:58:01.696Z,18.02
2023-05-12T12:00:32.933Z,18.00
2023-05-12T12:03:12.692Z,17.63
2023-05-12T12:05:43.395Z,18.42
2023-05-12T12:10:45.862Z,9.90
2023-05-12T12:13:14.734Z,11.90
2023-05-12T12:15:43.137Z,12.73
2023-05-12T12:18:11.658Z,12.50
2023-05-12T12:20:39.995Z,13.30
2023-05-12T12:23:08.297Z,13.20
2023-05-12T12:25:38.374Z,12.07
2023-05-12T12:28:06.965Z,13.60
2023-05-12T12:30:35.800Z,13.20
2023-05-12T12:33:04.093Z,14.02
2023-05-12T12:35:32.465Z,14.43
2023-05-12T12:38:00.747Z,12.65
2023-05-12T12:40:29.132Z,11.27
2023-05-12T12:42:58.777Z,10.68
2023-05-12T12:45:27.457Z,10.63
2023-05-12T12:47:55.797Z,5.63
2023-05-12T12:50:25.839Z,5.10
2023-05-12T12:52:55.564Z,5.13
2023-05-12T12:55:24.150Z,5.70
2023-05-12T12:57:52.586Z,5.15
2023-05-12T13:00:24.202Z,5.03
2023-05-12T13:02:52.930Z,5.40
2023-05-12T13:05:21.460Z,4.90
2023-05-12T13:07:51.366Z,4.72
2023-05-12T13:10:19.893Z,4.83
2023-05-12T13:12:48.355Z,5.20
2023-05-12T13:15:19.252Z,4.60
2023-05-12T13:17:49.333Z,5.18
2023-05-12T13:20:17.943Z,5.40
2023-05-12T13:22:46.654Z,5.00
2023-05-12T13:25:15.162Z,5.40
2023-05-12T13:27:43.426Z,5.13
2023-05-12T13:30:13.717Z,5.88
2023-05-12T13:32:42.550Z,9.80
2023-05-12T13:35:12.409Z,9.82
2023-05-12T13:37:40.710Z,9.40
2023-05-12T13:40:10.559Z,8.25
2023-05-12T13:42:38.925Z,10.20
2023-05-12T13:45:09.306Z,8.98
2023-05-12T13:47:37.791Z,9.05
2023-05-12T13:50:07.721Z,9.55
2023-05-12T13:52:37.471Z,12.95
2023-05-12T13:55:06.876Z,14.77
2023-05-12T13:57:35.126Z,13.10
2023-05-12T14:00:04.634Z,14.57
2023-05-12T14:02:34.269Z,16.52
2023-05-12T14:05:02.806Z,14.20
2023-05-12T14:07:31.126Z,15.63
2023-05-12T14:10:01.483Z,14.18
2023-05-12T14:12:30.145Z,15.32
2023-05-12T14:15:11.185Z,18.45
2023-05-12T14:17:47.987Z,17.92
2023-05-12T14:20:16.491Z,19.30
2023-05-12T14:22:44.773Z,18.50
2023-05-12T14:25:16.162Z,18.90
2023-05-12T14:27:45.287Z,18.17
2023-05-12T14:30:15.018Z,17.55
2023-05-12T14:32:43.429Z,15.52
2023-05-12T14:35:11.786Z,17.40
2023-05-12T14:37:40.222Z,15.05
2023-05-12T14:40:10.446Z,16.25
2023-05-12T14:42:40.106Z,15.93
2023-05-12T14:45:09.872Z,15.93
2023-05-12T14:47:38.144Z,14.50
2023-05-12T14:50:07.830Z,15.80
2023-05-12T14:52:38.375Z,14.63
2023-05-12T14:57:41.997Z,15.30
2023-05-12T15:00:12.422Z,13.95
2023-05-12T15:02:41.671Z,13.75
2023-05-12T15:05:13.422Z,14.70
2023-05-12T15:07:42.075Z,13.93
2023-05-12T15:10:11.809Z,13.80
2023-05-12T15:12:41.512Z,14.03
2023-05-12T15:15:12.183Z,13.70
2023-05-12T15:20:10.156Z,13.25
2023-05-12T15:22:38.783Z,13.27
2023-05-12T15:25:09.104Z,12.55
2023-05-12T15:27:37.433Z,12.68
2023-05-12T15:30:09.430Z,11.52
2023-05-12T15:32:40.461Z,11.82
2023-05-12T15:35:09.908Z,13.15
2023-05-12T15:37:38.177Z,12.20
2023-05-12T15:40:09.838Z,12.32
2023-05-12T15:42:38.112Z,11.38
2023-05-12T15:45:10.524Z,11.27
2023-05-12T15:47:38.901Z,10.63
2023-05-12T15:50:10.347Z,11.15
2023-05-12T15:52:38.583Z,11.23
2023-05-12T15:55:07.560Z,9.57
2023-05-12T15:57:35.871Z,9.98
2023-05-12T16:00:05.422Z,10.38
2023-05-12T16:02:42.739Z,10.18
2023-05-12T16:05:12.415Z,9.85
2023-05-12T16:07:40.785Z,9.50
2023-05-12T16:10:10.456Z,9.68
2023-05-12T16:12:38.806Z,10.07
2023-05-12T16:15:08.325Z,9.80
2023-05-12T16:17:36.692Z,9.25
2023-05-12T16:20:09.259Z,9.43
2023-05-12T16:22:37.630Z,8.52
2023-05-12T16:25:07.055Z,8.80
2023-05-12T16:27:36.640Z,8.13
2023-05-12T16:30:06.260Z,8.40
2023-05-12T16:32:34.746Z,8.43
2023-05-12T16:35:03.170Z,8.40
2023-05-12T16:37:32.858Z,8.60
2023-05-12T16:40:01.231Z,8.43
2023-05-12T16:42:29.514Z,7.90
2023-05-12T16:44:57.903Z,8.02
2023-05-12T16:47:26.289Z,8.02
2023-05-12T16:49:54.751Z,8.88
2023-05-12T16:52:23.097Z,9.35
2023-05-12T16:54:53.192Z,9.02
2023-05-12T16:57:21.634Z,8.70
2023-05-12T16:59:49.968Z,10.48
2023-05-12T17:02:18.774Z,9.65
2023-05-12T17:04:47.992Z,10.73
2023-05-12T17:07:16.413Z,11.20
2023-05-12T17:09:44.693Z,10.90
2023-05-12T17:12:15.037Z,11.38
2023-05-12T17:14:47.918Z,11.48
2023-05-12T17:17:21.537Z,11.75
2023-05-12T17:19:51.227Z,12.45
2023-05-12T17:22:21.430Z,12.30
2023-05-12T17:24:49.708Z,8.27
2023-05-12T17:27:19.798Z,5.43
2023-05-12T17:29:48.111Z,5.47
2023-05-12T17:32:17.011Z,5.15
2023-05-12T17:34:45.278Z,5.57
2023-05-12T17:37:13.697Z,5.05
2023-05-12T17:39:44.234Z,5.10
2023-05-12T17:44:41.982Z,4.90
2023-05-12T17:47:13.966Z,6.00
2023-05-12T17:49:42.596Z,5.57
2023-05-12T17:52:10.960Z,5.70
2023-05-12T17:54:39.225Z,5.65
2023-05-12T17:57:07.616Z,6.00
2023-05-12T17:59:36.031Z,5.97
2023-05-12T18:02:06.092Z,5.65
2023-05-12T18:04:34.769Z,6.20
2023-05-12T18:07:03.066Z,6.15
2023-05-12T18:09:31.466Z,5.57
2023-05-12T18:11:59.757Z,6.18
2023-05-12T18:14:30.479Z,6.47
2023-05-12T18:16:58.841Z,6.43
2023-05-12T18:19:28.624Z,6.82
2023-05-12T18:21:56.889Z,7.03
2023-05-12T18:24:25.357Z,6.90
2023-05-12T18:26:53.677Z,6.50
2023-05-12T18:29:21.985Z,7.25
2023-05-12T18:31:50.461Z,7.07
2023-05-12T18:34:18.813Z,7.15
2023-05-12T18:36:48.474Z,8.48
2023-05-12T18:39:16.802Z,7.67
2023-05-12T18:41:45.335Z,9.55
2023-05-12T18:44:13.684Z,9.80
2023-05-12T18:46:41.956Z,10.10
2023-05-12T18:49:11.301Z,9.98
2023-05-12T18:51:39.642Z,9.88
2023-05-12T18:54:09.391Z,9.77
2023-05-12T18:56:37.991Z,8.87
2023-05-12T18:59:06.366Z,9.88
2023-05-12T19:01:35.230Z,9.70
2023-05-12T19:04:03.717Z,9.35
2023-05-12T19:06:32.688Z,9.75
2023-05-12T19:09:01.074Z,10.98
2023-05-12T19:11:31.014Z,13.20
2023-05-12T19:13:59.345Z,12.20
2023-05-12T19:16:29.690Z,13.20
2023-05-12T19:18:58.502Z,14.15
2023-05-12T19:21:27.508Z,14.02
2023-05-12T19:23:56.986Z,13.18
2023-05-12T19:26:26.748Z,13.77
2023-05-12T19:28:56.521Z,15.60
2023-05-12T19:31:24.886Z,16.98
2023-05-12T19:33:53.530Z,15.32
2023-05-12T19:36:21.917Z,16.35
2023-05-12T19:38:50.234Z,16.77
2023-05-12T19:41:18.563Z,18.42
2023-05-12T19:43:46.896Z,20.25
2023-05-12T19:46:16.667Z,20.58
2023-05-12T19:48:45.061Z,20.67
2023-05-12T19:51:13.479Z,22.48
2023-05-12T19:53:43.084Z,22.55
2023-05-12T19:56:11.428Z,23.70
2023-05-12T19:58:39.734Z,23.52
2023-05-12T20:01:08.047Z,25.83
2023-05-12T20:03:37.934Z,25.88
2023-05-12T20:06:06.476Z,25.27
2023-05-12T20:08:34.806Z,25.35
2023-05-12T20:11:03.193Z,26.17
2023-05-12T20:13:32.942Z,25.17
2023-05-12T20:16:01.278Z,24.97
2023-05-12T20:18:29.643Z,26.73
2023-05-12T20:20:59.296Z,26.52
2023-05-12T20:23:27.703Z,23.87
2023-05-12T20:25:56.035Z,25.55
2023-05-12T20:28:24.405Z,24.67
2023-05-12T20:30:52.804Z,26.00
2023-05-12T20:33:21.096Z,25.38
2023-05-12T20:35:49.505Z,25.25
2023-05-12T20:38:19.331Z,24.58
2023-05-12T20:40:47.754Z,26.75
2023-05-12T20:43:16.039Z,26.05
2023-05-12T20:45:44.345Z,25.05
2023-05-12T20:48:12.740Z,25.33
2023-05-12T20:50:42.174Z,26.13
2023-05-12T20:53:10.538Z,25.85
2023-05-12T20:55:43.017Z,26.17
2023-05-12T20:58:11.465Z,24.10
2023-05-12T21:00:39.753Z,25.00
2023-05-12T21:03:14.223Z,24.42
2023-05-12T21:05:47.480Z,24.55
2023-05-12T21:08:16.350Z,24.40
2023-05-12T21:10:46.256Z,24.13
2023-05-12T21:13:14.633Z,23.30
2023-05-12T21:15:42.923Z,22.35
2023-05-12T21:18:13.134Z,23.52
2023-05-12T21:20:41.791Z,23.40
2023-05-12T21:23:11.594Z,20.83
2023-05-12T21:25:40.185Z,19.48
2023-05-12T21:28:09.905Z,21.48
2023-05-12T21:30:38.169Z,20.37
2023-05-12T21:33:06.658Z,19.90
2023-05-12T21:35:35.037Z,19.42
2023-05-12T21:38:04.178Z,18.77
2023-05-12T21:40:33.665Z,17.10
2023-05-12T21:43:01.957Z,17.77
2023-05-12T21:45:31.640Z,17.20
2023-05-12T21:47:59.955Z,17.35
2023-05-12T21:50:28.300Z,17.15
2023-05-12T21:52:56.559Z,16.92
2023-05-12T21:55:24.895Z,17.35
2023-05-12T21:57:53.233Z,16.67
2023-05-12T22:00:21.854Z,16.15
2023-05-12T22:02:51.739Z,17.10
2023-05-12T22:05:20.322Z,16.73
2023-05-12T22:07:48.552Z,16.75
2023-05-12T22:10:16.963Z,16.92
2023-05-12T22:12:45.902Z,17.38
2023-05-12T22:15:14.226Z,16.55
2023-05-12T22:17:43.203Z,17.23
2023-05-12T22:20:14.408Z,17.48
2023-05-12T22:22:42.670Z,17.63
2023-05-12T22:25:11.465Z,17.55
2023-05-12T22:27:39.814Z,17.55
2023-05-12T22:30:10.244Z,18.60
2023-05-12T22:32:38.807Z,19.10
2023-05-12T22:35:08.744Z,18.00
2023-05-12T22:37:38.621Z,18.02
2023-05-12T22:40:08.959Z,18.92
2023-05-12T22:42:37.369Z,20.67
2023-05-12T22:45:06.905Z,20.02
2023-05-12T22:47:35.537Z,20.65
2023-05-12T22:50:03.882Z,20.80
2023-05-12T22:52:32.228Z,20.35
2023-05-12T22:55:01.932Z,20.85
2023-05-12T22:57:30.225Z,20.40
2023-05-12T22:59:58.572Z,21.02
2023-05-12T23:02:26.959Z,21.02
2023-05-12T23:04:55.385Z,20.77
2023-05-12T23:07:23.765Z,20.15
2023-05-12T23:09:52.010Z,20.27
2023-05-12T23:12:22.751Z,21.88
2023-05-12T23:14:51.053Z,21.63
2023-05-12T23:17:20.709Z,20.48
2023-05-12T23:19:49.221Z,22.30
2023-05-12T23:22:17.506Z,21.33
2023-05-12T23:24:45.854Z,20.48
2023-05-12T23:27:14.113Z,19.90
2023-05-12T23:29:43.728Z,20.65
2023-05-12T23:32:12.166Z,20.17
2023-05-12T23:34:40.599Z,20.17
2023-05-12T23:37:09.182Z,19.10
2023-05-12T23:39:37.580Z,19.63
2023-05-12T23:42:06.700Z,19.42
2023-05-12T23:44:34.976Z,19.52
2023-05-12T23:47:04.770Z,19.25
2023-05-12T23:49:33.101Z,19.60
2023-05-12T23:52:01.307Z,17.67
2023-05-12T23:54:29.664Z,18.35
2023-05-12T23:56:57.898Z,18.67
2023-05-12T23:59:26.427Z,17.83
